Time,TemperatureF,DewpointF,PressureIn,WindDirection,WindDirectionDegrees,WindSpeedMPH,WindSpeedGustMPH,Humidity,HourlyPrecipIn,Conditions,Clouds,dailyrainin,SoftwareType,DateUTC
2013-05-12 00:01:00,70.0,20.0,30.06,SE,135,3.0,5.0,15,0.00,,,0.00,,2013-05-12 07:01:00,
2013-05-12 00:11:00,71.0,21.0,30.06,SE,135,3.0,5.0,15,0.00,,,0.00,,2013-05-12 07:11:00,
2013-05-12 00:21:00,71.0,21.0,30.06,SE,135,3.0,5.0,15,0.00,,,0.00,,2013-05-12 07:21:00,
2013-05-12 00:32:00,68.0,20.0,30.06,SE,135,5.0,5.0,16,0.00,,,0.00,,2013-05-12 07:32:00,
2013-05-12 00:42:00,68.0,20.0,30.06,SE,135,5.0,5.0,16,0.00,,,0.00,,2013-05-12 07:42:00,
2013-05-12 00:52:00,69.0,21.0,30.06,SE,135,1.0,5.0,16,0.00,,,0.00,,2013-05-12 07:52:00,
2013-05-12 01:01:00,68.0,20.0,30.06,SE,135,2.0,3.0,16,0.00,,,0.00,,2013-05-12 08:01:00,
2013-05-12 01:11:00,66.0,19.0,30.06,SE,135,0.0,0.0,16,0.00,,,0.00,,2013-05-12 08:11:00,
2013-05-12 01:31:00,64.0,17.0,30.03,SE,135,0.0,0.0,16,0.00,,,0.00,,2013-05-12 08:31:00,
2013-05-12 02:01:00,66.0,19.0,30.03,SSE,158,0.0,3.0,16,0.00,,,0.00,,2013-05-12 09:01:00,
2013-05-12 02:11:00,67.0,19.0,30.03,SSE,158,1.0,5.0,16,0.00,,,0.00,,2013-05-12 09:11:00,
2013-05-12 02:21:00,67.0,19.0,30.03,SSE,158,1.0,5.0,16,0.00,,,0.00,,2013-05-12 09:21:00,
2013-05-12 02:32:00,67.0,19.0,30.03,SSE,158,0.0,0.0,16,0.00,,,0.00,,2013-05-12 09:32:00,
2013-05-12 02:42:00,67.0,19.0,30.03,SSE,158,0.0,0.0,16,0.00,,,0.00,,2013-05-12 09:42:00,
2013-05-12 02:52:00,67.0,19.0,30.03,SSE,158,0.0,5.0,16,0.00,,,0.00,,2013-05-12 09:52:00,
2013-05-12 03:02:00,67.0,19.0,30.03,SSE,158,2.0,3.0,16,0.00,,,0.00,,2013-05-12 10:02:00,
2013-05-12 03:12:00,67.0,19.0,30.03,SSE,158,2.0,3.0,16,0.00,,,0.00,,2013-05-12 10:12:00,
2013-05-12 03:22:00,67.0,19.0,30.03,SSE,158,2.0,3.0,16,0.00,,,0.00,,2013-05-12 10:22:00,
2013-05-12 03:32:00,67.0,19.0,30.03,SSE,158,0.0,0.0,16,0.00,,,0.00,,2013-05-12 10:32:00,
2013-05-12 03:41:00,67.0,19.0,30.03,SSE,158,0.0,0.0,16,0.00,,,0.00,,2013-05-12 10:41:00,
2013-05-12 03:52:00,66.0,19.0,30.03,SSE,158,2.0,3.0,16,0.00,,,0.00,,2013-05-12 10:52:00,
2013-05-12 04:02:00,66.0,19.0,30.00,SSE,158,2.0,3.0,16,0.00,,,0.00,,2013-05-12 11:02:00,
2013-05-12 04:11:00,66.0,19.0,30.00,SSE,158,2.0,3.0,16,0.00,,,0.00,,2013-05-12 11:11:00,
2013-05-12 04:21:00,66.0,23.0,30.03,SSE,158,3.0,3.0,19,0.00,,,0.00,,2013-05-12 11:21:00,
2013-05-12 04:31:00,65.0,22.0,30.00,SSE,158,3.0,5.0,19,0.00,,,0.00,,2013-05-12 11:31:00,
2013-05-12 04:41:00,63.0,20.0,30.00,SSE,158,2.0,5.0,19,0.00,,,0.00,,2013-05-12 11:41:00,
2013-05-12 04:52:00,63.0,20.0,30.00,SSE,158,2.0,5.0,19,0.00,,,0.00,,2013-05-12 11:52:00,
2013-05-12 05:01:00,63.0,20.0,30.00,SSE,158,2.0,5.0,19,0.00,,,0.00,,2013-05-12 12:01:00,
2013-05-12 05:11:00,63.0,24.0,30.00,SSE,158,2.0,5.0,22,0.00,,,0.00,,2013-05-12 12:11:00,
2013-05-12 05:21:00,63.0,24.0,30.00,SSE,158,2.0,5.0,22,0.00,,,0.00,,2013-05-12 12:21:00,
2013-05-12 05:31:00,63.0,24.0,30.00,SSE,158,3.0,5.0,22,0.00,,,0.00,,2013-05-12 12:31:00,
2013-05-12 05:41:00,63.0,24.0,30.00,SSE,158,3.0,5.0,22,0.00,,,0.00,,2013-05-12 12:41:00,
2013-05-12 05:52:00,64.0,26.0,30.03,SSE,158,0.0,2.0,24,0.00,,,0.00,,2013-05-12 12:52:00,
2013-05-12 06:01:00,64.0,26.0,30.03,SSE,158,2.0,5.0,24,0.00,,,0.00,,2013-05-12 13:01:00,
2013-05-12 06:11:00,64.0,26.0,30.03,SSE,158,2.0,5.0,24,0.00,,,0.00,,2013-05-12 13:11:00,
2013-05-12 06:21:00,64.0,29.0,30.03,SSE,158,3.0,5.0,27,0.00,,,0.00,,2013-05-12 13:21:00,
2013-05-12 06:31:00,65.0,29.0,30.03,SSE,158,2.0,3.0,26,0.00,,,0.00,,2013-05-12 13:31:00,
2013-05-12 06:41:00,65.0,29.0,30.03,SSE,158,2.0,3.0,26,0.00,,,0.00,,2013-05-12 13:41:00,
2013-05-12 06:52:00,67.0,28.0,30.03,SSE,158,1.0,3.0,23,0.00,,,0.00,,2013-05-12 13:52:00,
2013-05-12 07:01:00,69.0,30.0,30.03,SSE,158,1.0,3.0,23,0.00,,,0.00,,2013-05-12 14:01:00,
2013-05-12 07:11:00,69.0,30.0,30.03,SSE,158,1.0,3.0,23,0.00,,,0.00,,2013-05-12 14:11:00,
2013-05-12 07:31:00,73.0,32.0,30.03,SSE,158,5.0,5.0,22,0.00,,,0.00,,2013-05-12 14:31:00,
2013-05-12 07:41:00,74.0,29.0,30.03,SSE,158,1.0,2.0,19,0.00,,,0.00,,2013-05-12 14:41:00,
2013-05-12 07:52:00,74.0,29.0,30.03,SSE,158,1.0,2.0,19,0.00,,,0.00,,2013-05-12 14:52:00,
2013-05-12 08:01:00,74.0,29.0,30.03,SSE,158,3.0,6.0,19,0.00,,,0.00,,2013-05-12 15:01:00,
2013-05-12 08:11:00,74.0,29.0,30.03,SSE,158,3.0,6.0,19,0.00,,,0.00,,2013-05-12 15:11:00,
2013-05-12 08:21:00,75.0,30.0,30.03,South,180,3.0,6.0,19,0.00,,,0.00,,2013-05-12 15:21:00,
2013-05-12 08:33:00,76.0,31.0,30.06,South,180,3.0,6.0,19,0.00,,,0.00,,2013-05-12 15:33:00,
2013-05-12 08:42:00,76.0,31.0,30.06,South,180,3.0,6.0,19,0.00,,,0.00,,2013-05-12 15:42:00,
2013-05-12 08:52:00,77.0,32.0,30.06,South,180,5.0,6.0,19,0.00,,,0.00,,2013-05-12 15:52:00,
2013-05-12 09:02:00,79.0,32.0,30.06,South,180,3.0,5.0,18,0.00,,,0.00,,2013-05-12 16:02:00,
2013-05-12 09:12:00,80.0,33.0,30.06,West,262,5.0,6.0,18,0.00,,,0.00,,2013-05-12 16:12:00,
2013-05-12 09:23:00,80.0,33.0,30.06,West,262,5.0,6.0,18,0.00,,,0.00,,2013-05-12 16:23:00,
2013-05-12 09:32:00,81.0,33.0,30.06,West,270,6.0,8.0,18,0.00,,,0.00,,2013-05-12 16:32:00,
2013-05-12 09:41:00,81.0,33.0,30.06,West,270,6.0,8.0,18,0.00,,,0.00,,2013-05-12 16:41:00,
2013-05-12 09:52:00,82.0,30.0,30.06,West,270,6.0,7.0,15,0.00,,,0.00,,2013-05-12 16:52:00,
2013-05-12 10:01:00,84.0,31.0,30.06,West,270,5.0,12.0,15,0.00,,,0.00,,2013-05-12 17:01:00,
2013-05-12 10:11:00,86.0,31.0,30.06,West,270,5.0,6.0,14,0.00,,,0.00,,2013-05-12 17:11:00,
2013-05-12 10:22:00,86.0,31.0,30.06,West,270,5.0,6.0,14,0.00,,,0.00,,2013-05-12 17:22:00,
2013-05-12 10:32:00,88.0,33.0,30.06,NW,315,6.0,6.0,14,0.00,,,0.00,,2013-05-12 17:32:00,
2013-05-12 10:42:00,90.0,34.0,30.06,NW,315,2.0,6.0,14,0.00,,,0.00,,2013-05-12 17:42:00,
2013-05-12 10:52:00,90.0,34.0,30.06,NW,315,2.0,6.0,14,0.00,,,0.00,,2013-05-12 17:52:00,
2013-05-12 11:01:00,90.0,31.0,30.06,NW,315,5.0,8.0,12,0.00,,,0.00,,2013-05-12 18:01:00,
2013-05-12 11:12:00,90.0,31.0,30.06,NW,315,5.0,8.0,12,0.00,,,0.00,,2013-05-12 18:12:00,
2013-05-12 11:22:00,92.0,28.0,30.06,North,0,1.0,5.0,10,0.00,,,0.00,,2013-05-12 18:22:00,
2013-05-12 11:31:00,91.0,29.0,30.06,NE,45,3.0,8.0,11,0.00,,,0.00,,2013-05-12 18:31:00,
2013-05-12 11:41:00,91.0,29.0,30.06,NE,45,3.0,8.0,11,0.00,,,0.00,,2013-05-12 18:41:00,
2013-05-12 11:52:00,90.0,28.0,30.06,East,90,5.0,8.0,11,0.00,,,0.00,,2013-05-12 18:52:00,
2013-05-12 12:01:00,90.0,28.0,30.06,East,90,6.0,14.0,11,0.00,,,0.00,,2013-05-12 19:01:00,
2013-05-12 12:11:00,90.0,28.0,30.06,East,90,6.0,14.0,11,0.00,,,0.00,,2013-05-12 19:11:00,
2013-05-12 12:21:00,90.0,28.0,30.06,NNE,20,7.0,12.0,11,0.00,,,0.00,,2013-05-12 19:21:00,
2013-05-12 12:31:00,91.0,29.0,30.06,NE,45,7.0,13.0,11,0.00,,,0.00,,2013-05-12 19:31:00,
2013-05-12 12:41:00,91.0,29.0,30.06,NE,45,8.0,13.0,11,0.00,,,0.00,,2013-05-12 19:41:00,
2013-05-12 12:52:00,91.0,29.0,30.06,NE,45,8.0,13.0,11,0.00,,,0.00,,2013-05-12 19:52:00,
2013-05-12 13:01:00,91.0,29.0,30.06,ENE,64,10.0,16.0,11,0.00,,,0.00,,2013-05-12 20:01:00,
2013-05-12 13:11:00,92.0,28.0,30.06,NE,45,8.0,14.0,10,0.00,,,0.00,,2013-05-12 20:11:00,
2013-05-12 13:21:00,92.0,28.0,30.06,NE,45,8.0,14.0,10,0.00,,,0.00,,2013-05-12 20:21:00,
2013-05-12 13:32:00,92.0,28.0,30.06,NE,45,7.0,13.0,10,0.00,,,0.00,,2013-05-12 20:32:00,
2013-05-12 13:41:00,92.0,28.0,30.06,NE,45,7.0,13.0,10,0.00,,,0.00,,2013-05-12 20:41:00,
2013-05-12 13:52:00,92.0,28.0,30.06,East,98,8.0,15.0,10,0.00,,,0.00,,2013-05-12 20:52:00,
2013-05-12 14:01:00,92.0,28.0,30.06,ENE,64,12.0,15.0,10,0.00,,,0.00,,2013-05-12 21:01:00,
2013-05-12 14:11:00,94.0,29.0,30.06,East,95,6.0,13.0,10,0.00,,,0.00,,2013-05-12 21:11:00,
2013-05-12 14:21:00,94.0,29.0,30.06,East,95,6.0,13.0,10,0.00,,,0.00,,2013-05-12 21:21:00,
2013-05-12 14:32:00,94.0,29.0,30.03,East,96,6.0,12.0,10,0.00,,,0.00,,2013-05-12 21:32:00,
2013-05-12 14:42:00,94.0,29.0,30.03,East,96,6.0,12.0,10,0.00,,,0.00,,2013-05-12 21:42:00,
2013-05-12 14:53:00,94.0,29.0,30.03,East,82,7.0,13.0,10,0.00,,,0.00,,2013-05-12 21:53:00,
2013-05-12 15:02:00,93.0,28.0,30.03,ENE,72,7.0,13.0,10,0.00,,,0.00,,2013-05-12 22:02:00,
2013-05-12 15:12:00,93.0,28.0,30.03,East,90,6.0,12.0,10,0.00,,,0.00,,2013-05-12 22:12:00,
2013-05-12 15:22:00,93.0,28.0,30.03,East,90,6.0,12.0,10,0.00,,,0.00,,2013-05-12 22:22:00,
2013-05-12 15:32:00,94.0,29.0,30.03,NE,45,6.0,12.0,10,0.00,,,0.00,,2013-05-12 22:32:00,
2013-05-12 15:42:00,94.0,29.0,30.03,NE,45,6.0,12.0,10,0.00,,,0.00,,2013-05-12 22:42:00,
2013-05-12 15:52:00,95.0,30.0,30.03,NE,45,5.0,8.0,10,0.00,,,0.00,,2013-05-12 22:52:00,
2013-05-12 16:02:00,93.0,28.0,30.03,NE,45,7.0,13.0,10,0.00,,,0.00,,2013-05-12 23:02:00,
2013-05-12 16:11:00,93.0,28.0,30.03,NE,45,9.0,13.0,10,0.00,,,0.00,,2013-05-12 23:11:00,
2013-05-12 16:22:00,93.0,28.0,30.03,NE,45,9.0,13.0,10,0.00,,,0.00,,2013-05-12 23:22:00,
2013-05-12 16:32:00,94.0,29.0,30.03,ESE,112,3.0,6.0,10,0.00,,,0.00,,2013-05-12 23:32:00,
2013-05-12 16:42:00,94.0,29.0,30.03,ESE,112,3.0,6.0,10,0.00,,,0.00,,2013-05-12 23:42:00,
2013-05-12 16:52:00,94.0,29.0,30.00,ENE,64,7.0,13.0,10,0.00,,,0.00,,2013-05-12 23:52:00,
2013-05-12 17:01:00,94.0,29.0,30.00,ENE,68,6.0,8.0,10,0.00,,,0.00,,2013-05-13 00:01:00,
2013-05-12 17:11:00,94.0,29.0,30.00,ENE,68,6.0,8.0,10,0.00,,,0.00,,2013-05-13 00:11:00,
2013-05-12 17:21:00,93.0,28.0,30.00,East,90,6.0,8.0,10,0.00,,,0.00,,2013-05-13 00:21:00,
2013-05-12 17:32:00,94.0,29.0,30.00,NE,45,4.0,6.0,10,0.00,,,0.00,,2013-05-13 00:32:00,
2013-05-12 17:41:00,95.0,30.0,30.00,NE,45,3.0,6.0,10,0.00,,,0.00,,2013-05-13 00:41:00,
2013-05-12 17:51:00,95.0,30.0,30.00,NE,45,3.0,6.0,10,0.00,,,0.00,,2013-05-13 00:51:00,
2013-05-12 18:01:00,93.0,28.0,30.00,East,90,5.0,9.0,10,0.00,,,0.00,,2013-05-13 01:01:00,
2013-05-12 18:11:00,93.0,28.0,30.00,East,90,5.0,9.0,10,0.00,,,0.00,,2013-05-13 01:11:00,
2013-05-12 18:21:00,94.0,29.0,30.00,NE,45,2.0,5.0,10,0.00,,,0.00,,2013-05-13 01:21:00,
2013-05-12 18:31:00,93.0,28.0,30.00,NE,45,2.0,7.0,10,0.00,,,0.00,,2013-05-13 01:31:00,
2013-05-12 18:41:00,93.0,28.0,30.00,NE,45,2.0,7.0,10,0.00,,,0.00,,2013-05-13 01:41:00,
2013-05-12 18:52:00,92.0,28.0,29.97,ESE,111,4.0,6.0,10,0.00,,,0.00,,2013-05-13 01:52:00,
2013-05-12 19:01:00,92.0,28.0,30.00,ESE,112,3.0,6.0,10,0.00,,,0.00,,2013-05-13 02:01:00,
2013-05-12 19:11:00,92.0,28.0,30.00,ESE,112,3.0,6.0,10,0.00,,,0.00,,2013-05-13 02:11:00,
2013-05-12 19:21:00,90.0,28.0,30.00,East,96,5.0,8.0,11,0.00,,,0.00,,2013-05-13 02:21:00,
2013-05-12 19:31:00,89.0,28.0,29.97,ESE,112,3.0,5.0,11,0.00,,,0.00,,2013-05-13 02:31:00,
2013-05-12 19:41:00,89.0,28.0,29.97,ESE,112,3.0,5.0,11,0.00,,,0.00,,2013-05-13 02:41:00,
2013-05-12 19:52:00,88.0,29.0,29.97,ESE,112,3.0,6.0,12,0.00,,,0.00,,2013-05-13 02:52:00,
2013-05-12 20:01:00,85.0,27.0,29.97,ESE,112,3.0,5.0,12,0.00,,,0.00,,2013-05-13 03:01:00,
2013-05-12 20:11:00,83.0,25.0,29.97,ESE,112,3.0,3.0,12,0.00,,,0.00,,2013-05-13 03:11:00,
2013-05-12 20:21:00,83.0,25.0,29.97,ESE,112,3.0,3.0,12,0.00,,,0.00,,2013-05-13 03:21:00,
2013-05-12 20:32:00,82.0,26.0,29.97,ESE,112,3.0,5.0,13,0.00,,,0.00,,2013-05-13 03:32:00,
2013-05-12 20:42:00,82.0,26.0,29.97,ESE,112,3.0,5.0,13,0.00,,,0.00,,2013-05-13 03:42:00,
2013-05-12 20:53:00,80.0,25.0,29.97,SE,135,3.0,5.0,13,0.00,,,0.00,,2013-05-13 03:53:00,
2013-05-12 21:02:00,80.0,25.0,29.97,SE,135,3.0,6.0,13,0.00,,,0.00,,2013-05-13 04:02:00,
2013-05-12 21:12:00,80.0,25.0,29.97,SE,135,3.0,6.0,13,0.00,,,0.00,,2013-05-13 04:12:00,
2013-05-12 21:22:00,79.0,24.0,29.97,South,180,3.0,5.0,13,0.00,,,0.00,,2013-05-13 04:22:00,
2013-05-12 21:32:00,79.0,24.0,29.97,South,180,3.0,6.0,13,0.00,,,0.00,,2013-05-13 04:32:00,
2013-05-12 21:41:00,79.0,24.0,29.97,South,180,3.0,6.0,13,0.00,,,0.00,,2013-05-13 04:41:00,
2013-05-12 21:52:00,78.0,25.0,30.00,SW,225,5.0,6.0,14,0.00,,,0.00,,2013-05-13 04:52:00,
2013-05-12 22:02:00,78.0,25.0,30.00,West,270,6.0,8.0,14,0.00,,,0.00,,2013-05-13 05:02:00,
2013-05-12 22:11:00,79.0,24.0,30.00,West,270,7.0,9.0,13,0.00,,,0.00,,2013-05-13 05:11:00,
2013-05-12 22:21:00,79.0,24.0,30.00,West,270,7.0,9.0,13,0.00,,,0.00,,2013-05-13 05:21:00,
2013-05-12 22:32:00,78.0,25.0,30.00,WSW,256,5.0,8.0,14,0.00,,,0.00,,2013-05-13 05:32:00,
2013-05-12 22:42:00,78.0,25.0,30.00,WSW,256,5.0,8.0,14,0.00,,,0.00,,2013-05-13 05:42:00,
2013-05-12 22:52:00,79.0,24.0,30.00,SW,225,6.0,7.0,13,0.00,,,0.00,,2013-05-13 05:52:00,
2013-05-12 23:01:00,78.0,25.0,30.00,SW,225,5.0,6.0,14,0.00,,,0.00,,2013-05-13 06:01:00,
2013-05-12 23:11:00,76.0,23.0,30.00,SW,225,2.0,3.0,14,0.00,,,0.00,,2013-05-13 06:11:00,
2013-05-12 23:21:00,76.0,23.0,30.00,SW,225,2.0,3.0,14,0.00,,,0.00,,2013-05-13 06:21:00,
2013-05-12 23:31:00,75.0,23.0,30.00,SW,225,2.0,3.0,14,0.00,,,0.00,,2013-05-13 06:31:00,
2013-05-12 23:42:00,74.0,22.0,30.00,SW,225,0.0,0.0,14,0.00,,,0.00,,2013-05-13 06:42:00,
2013-05-12 23:52:00,74.0,22.0,30.00,SW,225,0.0,0.0,14,0.00,,,0.00,,2013-05-13 06:52:00,